sensor_id;sensor_type;location;lat;lon;timestamp;temperature;humidity
68378;DHT22;55322;48.146;11.516;2023-09-19T00:02:12;16.67;81.03
68378;DHT22;55322;48.146;11.516;2023-09-19T00:04:37;16.68;81.42
68378;DHT22;55322;48.146;11.516;2023-09-19T00:07:05;16.73;80.89
68378;DHT22;55322;48.146;11.516;2023-09-19T00:09:30;16.78;80.47
68378;DHT22;55322;48.146;11.516;2023-09-19T00:12:02;16.77;80.18
68378;DHT22;55322;48.146;11.516;2023-09-19T00:14:28;16.81;79.64
68378;DHT22;55322;48.146;11.516;2023-09-19T00:16:53;16.80;79.98
68378;DHT22;55322;48.146;11.516;2023-09-19T00:19:20;16.81;79.72
68378;DHT22;55322;48.146;11.516;2023-09-19T00:21:45;16.85;79.42
68378;DHT22;55322;48.146;11.516;2023-09-19T00:24:12;16.84;80.10
68378;DHT22;55322;48.146;11.516;2023-09-19T00:26:39;16.85;80.18
68378;DHT22;55322;48.146;11.516;2023-09-19T00:29:04;16.85;79.72
68378;DHT22;55322;48.146;11.516;2023-09-19T00:31:34;16.87;79.39
68378;DHT22;55322;48.146;11.516;2023-09-19T00:33:59;16.92;79.23
68378;DHT22;55322;48.146;11.516;2023-09-19T00:36:35;16.91;79.73
68378;DHT22;55322;48.146;11.516;2023-09-19T00:39:01;16.89;79.70
68378;DHT22;55322;48.146;11.516;2023-09-19T00:41:28;16.91;80.08
68378;DHT22;55322;48.146;11.516;2023-09-19T00:43:55;16.87;81.35
68378;DHT22;55322;48.146;11.516;2023-09-19T00:46:21;16.85;81.15
68378;DHT22;55322;48.146;11.516;2023-09-19T00:48:46;16.78;81.75
68378;DHT22;55322;48.146;11.516;2023-09-19T00:51:12;16.77;81.21
68378;DHT22;55322;48.146;11.516;2023-09-19T00:53:39;16.78;80.85
68378;DHT22;55322;48.146;11.516;2023-09-19T00:56:07;16.77;80.57
68378;DHT22;55322;48.146;11.516;2023-09-19T00:58:33;16.80;80.56
68378;DHT22;55322;48.146;11.516;2023-09-19T01:01:01;16.80;81.48
68378;DHT22;55322;48.146;11.516;2023-09-19T01:03:27;16.74;81.84
68378;DHT22;55322;48.146;11.516;2023-09-19T01:05:53;16.74;81.80
68378;DHT22;55322;48.146;11.516;2023-09-19T01:08:18;16.74;81.67
68378;DHT22;55322;48.146;11.516;2023-09-19T01:10:50;16.73;81.99
68378;DHT22;55322;48.146;11.516;2023-09-19T01:13:36;16.70;82.40
68378;DHT22;55322;48.146;11.516;2023-09-19T01:16:19;16.68;82.04
68378;DHT22;55322;48.146;11.516;2023-09-19T01:18:59;16.70;82.15
68378;DHT22;55322;48.146;11.516;2023-09-19T01:21:31;16.71;81.88
68378;DHT22;55322;48.146;11.516;2023-09-19T01:29:49;16.65;82.79
68378;DHT22;55322;48.146;11.516;2023-09-19T01:32:21;16.67;82.93
68378;DHT22;55322;48.146;11.516;2023-09-19T01:34:57;16.64;83.09
68378;DHT22;55322;48.146;11.516;2023-09-19T01:37:29;16.65;83.17
68378;DHT22;55322;48.146;11.516;2023-09-19T01:40:06;16.74;82.02
68378;DHT22;55322;48.146;11.516;2023-09-19T01:43:00;16.70;82.48
68378;DHT22;55322;48.146;11.516;2023-09-19T01:46:03;16.68;82.72
68378;DHT22;55322;48.146;11.516;2023-09-19T01:48:41;16.70;82.59
68378;DHT22;55322;48.146;11.516;2023-09-19T01:51:14;16.70;82.06
68378;DHT22;55322;48.146;11.516;2023-09-19T01:56:34;16.73;81.66
68378;DHT22;55322;48.146;11.516;2023-09-19T01:59:07;16.77;80.31
68378;DHT22;55322;48.146;11.516;2023-09-19T02:01:36;16.75;81.08
68378;DHT22;55322;48.146;11.516;2023-09-19T02:04:02;16.75;82.09
68378;DHT22;55322;48.146;11.516;2023-09-19T02:06:28;16.78;81.34
68378;DHT22;55322;48.146;11.516;2023-09-19T02:08:54;16.71;81.85
68378;DHT22;55322;48.146;11.516;2023-09-19T02:11:19;16.71;81.22
68378;DHT22;55322;48.146;11.516;2023-09-19T02:13:44;16.73;81.32
68378;DHT22;55322;48.146;11.516;2023-09-19T02:16:10;16.73;81.32
68378;DHT22;55322;48.146;11.516;2023-09-19T02:18:36;16.77;80.48
68378;DHT22;55322;48.146;11.516;2023-09-19T02:21:02;16.77;80.36
68378;DHT22;55322;48.146;11.516;2023-09-19T02:23:29;16.73;81.18
68378;DHT22;55322;48.146;11.516;2023-09-19T02:25:55;16.70;81.30
68378;DHT22;55322;48.146;11.516;2023-09-19T02:28:23;16.57;82.08
68378;DHT22;55322;48.146;11.516;2023-09-19T02:30:48;16.53;82.05
68378;DHT22;55322;48.146;11.516;2023-09-19T02:33:14;16.51;81.97
68378;DHT22;55322;48.146;11.516;2023-09-19T02:35:40;16.51;81.69
68378;DHT22;55322;48.146;11.516;2023-09-19T02:38:05;16.49;81.96
68378;DHT22;55322;48.146;11.516;2023-09-19T02:40:33;16.49;82.13
68378;DHT22;55322;48.146;11.516;2023-09-19T02:43:01;16.49;81.85
68378;DHT22;55322;48.146;11.516;2023-09-19T02:45:27;16.46;81.94
68378;DHT22;55322;48.146;11.516;2023-09-19T02:47:53;16.44;81.83
68378;DHT22;55322;48.146;11.516;2023-09-19T02:50:18;16.44;82.41
68378;DHT22;55322;48.146;11.516;2023-09-19T02:52:45;16.44;81.85
68378;DHT22;55322;48.146;11.516;2023-09-19T02:55:15;16.41;82.80
68378;DHT22;55322;48.146;11.516;2023-09-19T02:57:53;16.37;82.35
68378;DHT22;55322;48.146;11.516;2023-09-19T03:00:22;16.33;82.31
68378;DHT22;55322;48.146;11.516;2023-09-19T03:02:57;16.33;82.79
68378;DHT22;55322;48.146;11.516;2023-09-19T03:05:25;16.30;82.83
68378;DHT22;55322;48.146;11.516;2023-09-19T03:07:51;16.29;83.33
68378;DHT22;55322;48.146;11.516;2023-09-19T03:10:18;16.26;83.60
68378;DHT22;55322;48.146;11.516;2023-09-19T03:12:43;16.24;83.42
68378;DHT22;55322;48.146;11.516;2023-09-19T03:15:09;16.24;82.78
68378;DHT22;55322;48.146;11.516;2023-09-19T03:17:35;16.24;82.94
68378;DHT22;55322;48.146;11.516;2023-09-19T03:20:00;16.24;83.04
68378;DHT22;55322;48.146;11.516;2023-09-19T03:22:26;16.21;82.91
68378;DHT22;55322;48.146;11.516;2023-09-19T03:24:52;16.24;82.47
68378;DHT22;55322;48.146;11.516;2023-09-19T03:27:18;16.23;82.38
68378;DHT22;55322;48.146;11.516;2023-09-19T03:29:43;16.21;82.66
68378;DHT22;55322;48.146;11.516;2023-09-19T03:32:09;16.21;82.21
68378;DHT22;55322;48.146;11.516;2023-09-19T03:34:37;16.23;82.22
68378;DHT22;55322;48.146;11.516;2023-09-19T03:37:05;16.21;82.42
68378;DHT22;55322;48.146;11.516;2023-09-19T03:39:32;16.19;82.34
68378;DHT22;55322;48.146;11.516;2023-09-19T03:41:57;16.21;81.61
68378;DHT22;55322;48.146;11.516;2023-09-19T03:44:22;16.26;81.86
68378;DHT22;55322;48.146;11.516;2023-09-19T03:46:48;16.23;81.98
68378;DHT22;55322;48.146;11.516;2023-09-19T03:49:13;16.23;83.08
68378;DHT22;55322;48.146;11.516;2023-09-19T03:51:38;16.16;82.69
68378;DHT22;55322;48.146;11.516;2023-09-19T03:54:07;16.16;82.85
68378;DHT22;55322;48.146;11.516;2023-09-19T03:56:32;16.16;82.85
68378;DHT22;55322;48.146;11.516;2023-09-19T03:58:57;16.13;83.24
68378;DHT22;55322;48.146;11.516;2023-09-19T04:01:23;16.23;82.73
68378;DHT22;55322;48.146;11.516;2023-09-19T04:03:48;16.24;82.07
68378;DHT22;55322;48.146;11.516;2023-09-19T04:06:16;16.29;82.55
68378;DHT22;55322;48.146;11.516;2023-09-19T04:08:42;16.26;82.37
68378;DHT22;55322;48.146;11.516;2023-09-19T04:11:08;16.26;82.73
68378;DHT22;55322;48.146;11.516;2023-09-19T04:13:34;16.27;82.75
68378;DHT22;55322;48.146;11.516;2023-09-19T04:15:59;16.27;82.56
68378;DHT22;55322;48.146;11.516;2023-09-19T04:18:25;16.27;82.37
68378;DHT22;55322;48.146;11.516;2023-09-19T04:20:51;16.34;82.05
68378;DHT22;55322;48.146;11.516;2023-09-19T04:23:16;16.33;82.14
68378;DHT22;55322;48.146;11.516;2023-09-19T04:25:43;16.33;82.15
68378;DHT22;55322;48.146;11.516;2023-09-19T04:28:08;16.36;81.77
68378;DHT22;55322;48.146;11.516;2023-09-19T04:30:36;16.36;81.98
68378;DHT22;55322;48.146;11.516;2023-09-19T04:33:03;16.44;81.65
68378;DHT22;55322;48.146;11.516;2023-09-19T04:35:28;16.39;81.79
68378;DHT22;55322;48.146;11.516;2023-09-19T04:37:57;16.34;81.96
68378;DHT22;55322;48.146;11.516;2023-09-19T04:40:22;16.37;81.93
68378;DHT22;55322;48.146;11.516;2023-09-19T04:42:54;16.36;81.48
68378;DHT22;55322;48.146;11.516;2023-09-19T04:45:23;16.34;81.70
68378;DHT22;55322;48.146;11.516;2023-09-19T04:47:49;16.33;81.90
68378;DHT22;55322;48.146;11.516;2023-09-19T04:50:14;16.40;81.05
68378;DHT22;55322;48.146;11.516;2023-09-19T04:52:43;16.41;81.23
68378;DHT22;55322;48.146;11.516;2023-09-19T04:55:13;16.41;81.26
68378;DHT22;55322;48.146;11.516;2023-09-19T04:57:45;16.40;81.00
68378;DHT22;55322;48.146;11.516;2023-09-19T05:00:15;16.33;81.48
68378;DHT22;55322;48.146;11.516;2023-09-19T05:02:42;16.40;81.03
68378;DHT22;55322;48.146;11.516;2023-09-19T05:05:08;16.36;81.34
68378;DHT22;55322;48.146;11.516;2023-09-19T05:07:35;16.36;81.41
68378;DHT22;55322;48.146;11.516;2023-09-19T05:10:01;16.41;81.15
68378;DHT22;55322;48.146;11.516;2023-09-19T05:12:26;16.39;81.66
68378;DHT22;55322;48.146;11.516;2023-09-19T05:14:52;16.40;81.49
68378;DHT22;55322;48.146;11.516;2023-09-19T05:17:18;16.41;81.05
68378;DHT22;55322;48.146;11.516;2023-09-19T05:19:43;16.40;80.96
68378;DHT22;55322;48.146;11.516;2023-09-19T05:22:08;16.41;81.10
68378;DHT22;55322;48.146;11.516;2023-09-19T05:24:34;16.46;81.27
68378;DHT22;55322;48.146;11.516;2023-09-19T05:26:59;16.44;80.86
68378;DHT22;55322;48.146;11.516;2023-09-19T05:29:25;16.46;81.37
68378;DHT22;55322;48.146;11.516;2023-09-19T05:31:51;16.47;81.49
68378;DHT22;55322;48.146;11.516;2023-09-19T05:34:16;16.47;81.81
68378;DHT22;55322;48.146;11.516;2023-09-19T05:36:42;16.54;80.49
68378;DHT22;55322;48.146;11.516;2023-09-19T05:39:08;16.65;81.76
68378;DHT22;55322;48.146;11.516;2023-09-19T05:41:35;16.70;79.66
68378;DHT22;55322;48.146;11.516;2023-09-19T05:44:05;16.67;79.94
68378;DHT22;55322;48.146;11.516;2023-09-19T05:46:32;16.71;79.85
68378;DHT22;55322;48.146;11.516;2023-09-19T05:48:57;16.74;79.76
68378;DHT22;55322;48.146;11.516;2023-09-19T05:51:23;16.73;79.95
68378;DHT22;55322;48.146;11.516;2023-09-19T05:53:48;16.73;79.55
68378;DHT22;55322;48.146;11.516;2023-09-19T05:56:14;16.64;80.46
68378;DHT22;55322;48.146;11.516;2023-09-19T05:58:40;16.71;80.63
68378;DHT22;55322;48.146;11.516;2023-09-19T06:01:08;16.85;80.16
68378;DHT22;55322;48.146;11.516;2023-09-19T06:03:35;16.94;80.45
68378;DHT22;55322;48.146;11.516;2023-09-19T06:06:01;17.00;80.04
68378;DHT22;55322;48.146;11.516;2023-09-19T06:08:27;17.05;79.67
68378;DHT22;55322;48.146;11.516;2023-09-19T06:10:53;17.11;79.60
68378;DHT22;55322;48.146;11.516;2023-09-19T06:13:19;17.18;79.45
68378;DHT22;55322;48.146;11.516;2023-09-19T06:15:45;17.19;79.35
68378;DHT22;55322;48.146;11.516;2023-09-19T06:18:12;17.21;79.29
68378;DHT22;55322;48.146;11.516;2023-09-19T06:20:42;17.24;79.29
68378;DHT22;55322;48.146;11.516;2023-09-19T06:23:09;17.29;79.77
68378;DHT22;55322;48.146;11.516;2023-09-19T06:25:35;17.34;78.54
68378;DHT22;55322;48.146;11.516;2023-09-19T06:28:00;17.36;79.11
68378;DHT22;55322;48.146;11.516;2023-09-19T06:30:30;17.40;78.64
68378;DHT22;55322;48.146;11.516;2023-09-19T06:32:59;17.40;78.67
68378;DHT22;55322;48.146;11.516;2023-09-19T06:35:26;17.40;78.34
68378;DHT22;55322;48.146;11.516;2023-09-19T06:37:52;17.49;77.47
68378;DHT22;55322;48.146;11.516;2023-09-19T06:40:18;17.50;78.44
68378;DHT22;55322;48.146;11.516;2023-09-19T06:42:50;17.56;77.41
68378;DHT22;55322;48.146;11.516;2023-09-19T06:45:16;17.59;77.38
68378;DHT22;55322;48.146;11.516;2023-09-19T06:47:48;17.70;77.27
68378;DHT22;55322;48.146;11.516;2023-09-19T06:50:17;17.66;77.66
68378;DHT22;55322;48.146;11.516;2023-09-19T06:52:44;17.65;77.46
68378;DHT22;55322;48.146;11.516;2023-09-19T06:55:09;17.66;77.24
68378;DHT22;55322;48.146;11.516;2023-09-19T06:57:37;17.86;77.32
68378;DHT22;55322;48.146;11.516;2023-09-19T07:00:02;18.11;77.16
68378;DHT22;55322;48.146;11.516;2023-09-19T07:02:33;18.36;75.80
68378;DHT22;55322;48.146;11.516;2023-09-19T07:04:59;18.40;75.52
68378;DHT22;55322;48.146;11.516;2023-09-19T07:07:25;18.29;77.12
68378;DHT22;55322;48.146;11.516;2023-09-19T07:09:50;18.18;77.10
68378;DHT22;55322;48.146;11.516;2023-09-19T07:12:18;18.13;76.94
68378;DHT22;55322;48.146;11.516;2023-09-19T07:14:44;18.09;77.15
68378;DHT22;55322;48.146;11.516;2023-09-19T07:17:10;18.14;76.72
68378;DHT22;55322;48.146;11.516;2023-09-19T07:19:35;18.20;76.75
68378;DHT22;55322;48.146;11.516;2023-09-19T07:22:00;18.27;77.04
68378;DHT22;55322;48.146;11.516;2023-09-19T07:24:28;18.31;76.28
68378;DHT22;55322;48.146;11.516;2023-09-19T07:26:54;18.31;76.27
68378;DHT22;55322;48.146;11.516;2023-09-19T07:29:19;18.44;75.80
68378;DHT22;55322;48.146;11.516;2023-09-19T07:31:45;18.69;74.20
68378;DHT22;55322;48.146;11.516;2023-09-19T07:34:11;19.11;74.01
68378;DHT22;55322;48.146;11.516;2023-09-19T07:36:36;19.42;73.86
68378;DHT22;55322;48.146;11.516;2023-09-19T07:39:03;19.62;72.47
68378;DHT22;55322;48.146;11.516;2023-09-19T07:41:32;19.63;71.94
68378;DHT22;55322;48.146;11.516;2023-09-19T07:43:57;19.67;72.31
68378;DHT22;55322;48.146;11.516;2023-09-19T07:46:23;19.77;73.11
68378;DHT22;55322;48.146;11.516;2023-09-19T07:48:50;20.24;71.15
68378;DHT22;55322;48.146;11.516;2023-09-19T07:51:15;20.67;69.71
68378;DHT22;55322;48.146;11.516;2023-09-19T07:53:41;20.84;69.68
68378;DHT22;55322;48.146;11.516;2023-09-19T07:56:08;21.18;67.50
68378;DHT22;55322;48.146;11.516;2023-09-19T07:58:35;21.69;66.39
68378;DHT22;55322;48.146;11.516;2023-09-19T08:01:09;22.27;64.08
68378;DHT22;55322;48.146;11.516;2023-09-19T08:03:36;22.59;63.16
68378;DHT22;55322;48.146;11.516;2023-09-19T08:06:06;22.21;63.56
68378;DHT22;55322;48.146;11.516;2023-09-19T08:08:32;21.73;64.62
68378;DHT22;55322;48.146;11.516;2023-09-19T08:10:57;21.46;66.19
68378;DHT22;55322;48.146;11.516;2023-09-19T08:13:23;21.10;67.60
68378;DHT22;55322;48.146;11.516;2023-09-19T08:15:49;21.00;68.15
68378;DHT22;55322;48.146;11.516;2023-09-19T08:18:16;20.89;68.20
68378;DHT22;55322;48.146;11.516;2023-09-19T08:20:42;20.84;68.46
68378;DHT22;55322;48.146;11.516;2023-09-19T08:23:11;21.22;67.49
68378;DHT22;55322;48.146;11.516;2023-09-19T08:25:36;23.06;62.64
68378;DHT22;55322;48.146;11.516;2023-09-19T08:28:04;24.52;58.27
68378;DHT22;55322;48.146;11.516;2023-09-19T08:30:33;25.87;54.97
68378;DHT22;55322;48.146;11.516;2023-09-19T08:33:00;26.80;50.28
68378;DHT22;55322;48.146;11.516;2023-09-19T08:35:26;27.49;48.61
68378;DHT22;55322;48.146;11.516;2023-09-19T08:37:51;27.53;48.07
68378;DHT22;55322;48.146;11.516;2023-09-19T08:40:17;27.95;47.76
68378;DHT22;55322;48.146;11.516;2023-09-19T08:42:52;28.05;47.84
68378;DHT22;55322;48.146;11.516;2023-09-19T08:45:21;28.45;46.40
68378;DHT22;55322;48.146;11.516;2023-09-19T08:48:00;27.81;48.01
68378;DHT22;55322;48.146;11.516;2023-09-19T08:50:29;28.87;46.46
68378;DHT22;55322;48.146;11.516;2023-09-19T08:52:56;28.26;48.24
68378;DHT22;55322;48.146;11.516;2023-09-19T08:55:27;28.34;47.03
68378;DHT22;55322;48.146;11.516;2023-09-19T08:57:59;28.60;46.67
68378;DHT22;55322;48.146;11.516;2023-09-19T09:00:27;27.26;48.55
68378;DHT22;55322;48.146;11.516;2023-09-19T09:02:54;25.95;51.49
68378;DHT22;55322;48.146;11.516;2023-09-19T09:05:22;24.42;55.13
68378;DHT22;55322;48.146;11.516;2023-09-19T09:07:52;23.30;57.56
68378;DHT22;55322;48.146;11.516;2023-09-19T09:10:20;22.95;59.24
68378;DHT22;55322;48.146;11.516;2023-09-19T09:12:51;23.94;57.49
68378;DHT22;55322;48.146;11.516;2023-09-19T09:15:18;23.73;55.95
68378;DHT22;55322;48.146;11.516;2023-09-19T09:17:47;23.27;57.52
68378;DHT22;55322;48.146;11.516;2023-09-19T09:20:13;24.12;56.96
68378;DHT22;55322;48.146;11.516;2023-09-19T09:22:38;24.86;54.72
68378;DHT22;55322;48.146;11.516;2023-09-19T09:25:09;26.45;51.15
68378;DHT22;55322;48.146;11.516;2023-09-19T09:27:34;26.01;51.21
68378;DHT22;55322;48.146;11.516;2023-09-19T09:30:00;25.09;53.02
68378;DHT22;55322;48.146;11.516;2023-09-19T09:34:58;25.78;52.19
68378;DHT22;55322;48.146;11.516;2023-09-19T09:37:24;26.22;51.52
68378;DHT22;55322;48.146;11.516;2023-09-19T09:40:00;25.92;50.84
68378;DHT22;55322;48.146;11.516;2023-09-19T09:42:44;26.00;51.40
68378;DHT22;55322;48.146;11.516;2023-09-19T09:45:18;26.60;49.62
68378;DHT22;55322;48.146;11.516;2023-09-19T09:48:03;27.07;48.15
68378;DHT22;55322;48.146;11.516;2023-09-19T09:50:35;26.87;47.79
68378;DHT22;55322;48.146;11.516;2023-09-19T09:53:20;26.87;48.04
68378;DHT22;55322;48.146;11.516;2023-09-19T09:58:26;26.26;49.41
68378;DHT22;55322;48.146;11.516;2023-09-19T10:00:58;25.61;52.27
68378;DHT22;55322;48.146;11.516;2023-09-19T10:03:32;24.69;52.59
68378;DHT22;55322;48.146;11.516;2023-09-19T10:05:59;24.12;54.49
68378;DHT22;55322;48.146;11.516;2023-09-19T10:08:27;24.11;55.07
68378;DHT22;55322;48.146;11.516;2023-09-19T10:10:56;24.41;53.83
68378;DHT22;55322;48.146;11.516;2023-09-19T10:13:30;24.47;53.27
68378;DHT22;55322;48.146;11.516;2023-09-19T10:15:58;24.54;53.02
68378;DHT22;55322;48.146;11.516;2023-09-19T10:18:25;25.22;52.05
68378;DHT22;55322;48.146;11.516;2023-09-19T10:20:51;26.18;49.69
68378;DHT22;55322;48.146;11.516;2023-09-19T10:23:19;26.53;49.68
68378;DHT22;55322;48.146;11.516;2023-09-19T10:25:52;26.24;48.40
68378;DHT22;55322;48.146;11.516;2023-09-19T10:28:19;25.67;51.14
68378;DHT22;55322;48.146;11.516;2023-09-19T10:30:50;25.85;50.88
68378;DHT22;55322;48.146;11.516;2023-09-19T10:33:18;26.14;50.20
68378;DHT22;55322;48.146;11.516;2023-09-19T10:35:52;25.17;51.09
68378;DHT22;55322;48.146;11.516;2023-09-19T10:38:23;24.47;54.27
68378;DHT22;55322;48.146;11.516;2023-09-19T10:40:50;23.98;53.49
68378;DHT22;55322;48.146;11.516;2023-09-19T10:43:18;23.42;55.59
68378;DHT22;55322;48.146;11.516;2023-09-19T10:45:44;23.30;56.33
68378;DHT22;55322;48.146;11.516;2023-09-19T10:48:10;24.35;54.68
68378;DHT22;55322;48.146;11.516;2023-09-19T10:50:44;25.59;51.95
68378;DHT22;55322;48.146;11.516;2023-09-19T10:53:11;25.41;50.57
68378;DHT22;55322;48.146;11.516;2023-09-19T10:55:37;25.66;51.85
68378;DHT22;55322;48.146;11.516;2023-09-19T10:58:05;26.14;51.01
68378;DHT22;55322;48.146;11.516;2023-09-19T11:00:53;26.55;49.02
68378;DHT22;55322;48.146;11.516;2023-09-19T11:03:19;26.38;49.64
68378;DHT22;55322;48.146;11.516;2023-09-19T11:06:05;26.44;49.25
68378;DHT22;55322;48.146;11.516;2023-09-19T11:09:02;26.46;50.02
68378;DHT22;55322;48.146;11.516;2023-09-19T11:11:48;26.83;48.26
68378;DHT22;55322;48.146;11.516;2023-09-19T11:17:32;26.95;44.86
68378;DHT22;55322;48.146;11.516;2023-09-19T11:36:10;26.41;46.68
68378;DHT22;55322;48.146;11.516;2023-09-19T11:46:29;23.94;50.54
68378;DHT22;55322;48.146;11.516;2023-09-19T11:49:05;24.11;51.23
68378;DHT22;55322;48.146;11.516;2023-09-19T11:51:40;23.93;51.65
68378;DHT22;55322;48.146;11.516;2023-09-19T11:54:10;24.08;51.13
68378;DHT22;55322;48.146;11.516;2023-09-19T11:56:53;24.62;50.58
68378;DHT22;55322;48.146;11.516;2023-09-19T11:59:30;25.13;50.17
68378;DHT22;55322;48.146;11.516;2023-09-19T12:02:05;25.64;49.16
68378;DHT22;55322;48.146;11.516;2023-09-19T12:04:44;25.47;46.93
68378;DHT22;55322;48.146;11.516;2023-09-19T12:07:16;25.12;47.75
68378;DHT22;55322;48.146;11.516;2023-09-19T12:09:43;24.31;49.71
68378;DHT22;55322;48.146;11.516;2023-09-19T12:12:23;24.15;51.23
68378;DHT22;55322;48.146;11.516;2023-09-19T12:14:52;23.46;51.92
68378;DHT22;55322;48.146;11.516;2023-09-19T12:17:18;23.07;53.24
68378;DHT22;55322;48.146;11.516;2023-09-19T12:19:51;22.95;54.56
68378;DHT22;55322;48.146;11.516;2023-09-19T12:22:17;23.19;52.67
68378;DHT22;55322;48.146;11.516;2023-09-19T12:24:44;23.57;52.59
68378;DHT22;55322;48.146;11.516;2023-09-19T12:27:10;23.75;50.40
68378;DHT22;55322;48.146;11.516;2023-09-19T12:29:57;24.20;52.10
68378;DHT22;55322;48.146;11.516;2023-09-19T12:32:37;24.38;50.01
68378;DHT22;55322;48.146;11.516;2023-09-19T12:35:06;24.14;50.37
68378;DHT22;55322;48.146;11.516;2023-09-19T12:37:37;24.24;51.94
68378;DHT22;55322;48.146;11.516;2023-09-19T12:40:07;24.14;49.97
68378;DHT22;55322;48.146;11.516;2023-09-19T12:42:48;24.47;49.99
68378;DHT22;55322;48.146;11.516;2023-09-19T12:45:14;24.79;51.65
68378;DHT22;55322;48.146;11.516;2023-09-19T12:53:37;24.89;50.24
68378;DHT22;55322;48.146;11.516;2023-09-19T12:56:11;24.66;49.61
68378;DHT22;55322;48.146;11.516;2023-09-19T12:58:55;24.45;51.26
68378;DHT22;55322;48.146;11.516;2023-09-19T13:01:22;24.07;51.52
68378;DHT22;55322;48.146;11.516;2023-09-19T13:04:15;24.07;52.63
68378;DHT22;55322;48.146;11.516;2023-09-19T13:06:50;23.24;55.68
68378;DHT22;55322;48.146;11.516;2023-09-19T13:09:16;23.03;57.38
68378;DHT22;55322;48.146;11.516;2023-09-19T13:11:42;22.98;57.64
68378;DHT22;55322;48.146;11.516;2023-09-19T13:14:20;22.55;58.47
68378;DHT22;55322;48.146;11.516;2023-09-19T13:17:02;22.38;59.06
68378;DHT22;55322;48.146;11.516;2023-09-19T13:22:39;22.10;59.78
68378;DHT22;55322;48.146;11.516;2023-09-19T13:25:17;22.03;60.21
68378;DHT22;55322;48.146;11.516;2023-09-19T13:27:52;21.97;59.99
68378;DHT22;55322;48.146;11.516;2023-09-19T13:30:20;22.37;61.02
68378;DHT22;55322;48.146;11.516;2023-09-19T13:32:46;22.69;58.59
68378;DHT22;55322;48.146;11.516;2023-09-19T13:35:13;22.47;59.04
68378;DHT22;55322;48.146;11.516;2023-09-19T13:37:39;22.34;59.43
68378;DHT22;55322;48.146;11.516;2023-09-19T13:40:12;21.94;58.29
68378;DHT22;55322;48.146;11.516;2023-09-19T13:42:37;21.91;60.83
68378;DHT22;55322;48.146;11.516;2023-09-19T13:45:04;22.24;60.29
68378;DHT22;55322;48.146;11.516;2023-09-19T13:47:30;22.51;59.83
68378;DHT22;55322;48.146;11.516;2023-09-19T13:49:56;22.88;57.71
68378;DHT22;55322;48.146;11.516;2023-09-19T13:52:22;23.05;54.71
68378;DHT22;55322;48.146;11.516;2023-09-19T13:54:49;23.45;54.00
68378;DHT22;55322;48.146;11.516;2023-09-19T13:57:15;23.59;55.38
68378;DHT22;55322;48.146;11.516;2023-09-19T13:59:42;23.30;55.53
68378;DHT22;55322;48.146;11.516;2023-09-19T14:02:07;23.33;51.20
68378;DHT22;55322;48.146;11.516;2023-09-19T14:04:33;23.50;51.33
68378;DHT22;55322;48.146;11.516;2023-09-19T14:07:01;23.59;50.92
68378;DHT22;55322;48.146;11.516;2023-09-19T14:09:27;23.64;51.06
68378;DHT22;55322;48.146;11.516;2023-09-19T14:11:52;23.66;51.09
68378;DHT22;55322;48.146;11.516;2023-09-19T14:14:18;23.77;52.94
68378;DHT22;55322;48.146;11.516;2023-09-19T14:16:45;23.84;50.10
68378;DHT22;55322;48.146;11.516;2023-09-19T14:19:11;23.77;52.25
68378;DHT22;55322;48.146;11.516;2023-09-19T14:21:36;23.67;52.37
68378;DHT22;55322;48.146;11.516;2023-09-19T14:24:02;23.78;51.71
68378;DHT22;55322;48.146;11.516;2023-09-19T14:26:28;23.83;52.00
68378;DHT22;55322;48.146;11.516;2023-09-19T14:28:54;23.78;51.25
68378;DHT22;55322;48.146;11.516;2023-09-19T14:31:19;23.75;52.86
68378;DHT22;55322;48.146;11.516;2023-09-19T14:33:45;23.69;51.98
68378;DHT22;55322;48.146;11.516;2023-09-19T14:36:10;23.69;52.78
68378;DHT22;55322;48.146;11.516;2023-09-19T14:38:37;23.39;52.75
68378;DHT22;55322;48.146;11.516;2023-09-19T14:41:05;23.27;53.77
68378;DHT22;55322;48.146;11.516;2023-09-19T14:43:31;23.23;54.22
68378;DHT22;55322;48.146;11.516;2023-09-19T14:46:02;23.03;55.31
68378;DHT22;55322;48.146;11.516;2023-09-19T14:48:28;23.09;54.23
68378;DHT22;55322;48.146;11.516;2023-09-19T14:50:54;22.76;54.47
68378;DHT22;55322;48.146;11.516;2023-09-19T14:53:21;22.69;54.90
68378;DHT22;55322;48.146;11.516;2023-09-19T14:55:46;22.52;55.94
68378;DHT22;55322;48.146;11.516;2023-09-19T14:58:13;22.45;56.10
68378;DHT22;55322;48.146;11.516;2023-09-19T15:00:38;22.48;53.87
68378;DHT22;55322;48.146;11.516;2023-09-19T15:03:04;22.64;54.78
68378;DHT22;55322;48.146;11.516;2023-09-19T15:05:29;22.62;55.31
68378;DHT22;55322;48.146;11.516;2023-09-19T15:07:55;22.68;53.99
68378;DHT22;55322;48.146;11.516;2023-09-19T15:10:22;22.66;54.75
68378;DHT22;55322;48.146;11.516;2023-09-19T15:12:47;22.54;55.75
68378;DHT22;55322;48.146;11.516;2023-09-19T15:15:13;22.65;56.76
68378;DHT22;55322;48.146;11.516;2023-09-19T15:17:39;22.65;55.94
68378;DHT22;55322;48.146;11.516;2023-09-19T15:20:06;22.66;56.11
68378;DHT22;55322;48.146;11.516;2023-09-19T15:22:35;22.75;56.13
68378;DHT22;55322;48.146;11.516;2023-09-19T15:25:01;22.78;55.72
68378;DHT22;55322;48.146;11.516;2023-09-19T15:27:28;22.78;54.59
68378;DHT22;55322;48.146;11.516;2023-09-19T15:29:56;22.81;54.99
68378;DHT22;55322;48.146;11.516;2023-09-19T15:32:24;22.72;55.31
68378;DHT22;55322;48.146;11.516;2023-09-19T15:34:49;22.68;55.03
68378;DHT22;55322;48.146;11.516;2023-09-19T15:37:14;22.62;55.36
68378;DHT22;55322;48.146;11.516;2023-09-19T15:39:40;22.38;55.96
68378;DHT22;55322;48.146;11.516;2023-09-19T15:42:06;22.21;55.28
68378;DHT22;55322;48.146;11.516;2023-09-19T15:44:31;22.13;56.43
68378;DHT22;55322;48.146;11.516;2023-09-19T15:46:58;21.97;55.84
68378;DHT22;55322;48.146;11.516;2023-09-19T15:49:23;21.71;56.87
68378;DHT22;55322;48.146;11.516;2023-09-19T15:51:49;21.64;58.05
68378;DHT22;55322;48.146;11.516;2023-09-19T15:54:14;21.67;57.12
68378;DHT22;55322;48.146;11.516;2023-09-19T15:56:44;21.74;58.13
68378;DHT22;55322;48.146;11.516;2023-09-19T15:59:10;21.73;56.56
68378;DHT22;55322;48.146;11.516;2023-09-19T16:01:38;21.56;55.64
68378;DHT22;55322;48.146;11.516;2023-09-19T16:04:05;21.46;57.12
68378;DHT22;55322;48.146;11.516;2023-09-19T16:06:34;21.32;56.45
68378;DHT22;55322;48.146;11.516;2023-09-19T16:09:00;21.16;59.66
68378;DHT22;55322;48.146;11.516;2023-09-19T16:11:29;21.05;59.08
68378;DHT22;55322;48.146;11.516;2023-09-19T16:13:55;21.06;59.26